sensor_id;sensor_type;location;lat;lon;timestamp;P1;durP1;ratioP1;P2;durP2;ratioP2
64225;SDS011;50545;56.064;26.178;2023-02-12T00:00:42;2.67;;;1.00;;
64225;SDS011;50545;56.064;26.178;2023-02-12T00:03:10;2.03;;;1.08;;
64225;SDS011;50545;56.064;26.178;2023-02-12T00:05:38;3.30;;;1.42;;
64225;SDS011;50545;56.064;26.178;2023-02-12T00:08:07;4.55;;;1.88;;
64225;SDS011;50545;56.064;26.178;2023-02-12T00:10:40;2.70;;;1.30;;
64225;SDS011;50545;56.064;26.178;2023-02-12T00:13:08;3.75;;;1.33;;
64225;SDS011;50545;56.064;26.178;2023-02-12T00:15:37;3.10;;;1.50;;
64225;SDS011;50545;56.064;26.178;2023-02-12T00:18:06;2.63;;;1.30;;
64225;SDS011;50545;56.064;26.178;2023-02-12T00:20:33;1.25;;;1.10;;
64225;SDS011;50545;56.064;26.178;2023-02-12T00:23:03;1.95;;;1.10;;
64225;SDS011;50545;56.064;26.178;2023-02-12T00:25:31;2.88;;;1.30;;
64225;SDS011;50545;56.064;26.178;2023-02-12T00:27:58;2.53;;;1.20;;
64225;SDS011;50545;56.064;26.178;2023-02-12T00:30:26;4.00;;;1.30;;
64225;SDS011;50545;56.064;26.178;2023-02-12T00:32:53;2.05;;;1.02;;
64225;SDS011;50545;56.064;26.178;2023-02-12T00:35:20;2.83;;;1.33;;
64225;SDS011;50545;56.064;26.178;2023-02-12T00:37:48;6.82;;;1.50;;
64225;SDS011;50545;56.064;26.178;2023-02-12T00:40:15;2.67;;;1.30;;
64225;SDS011;50545;56.064;26.178;2023-02-12T00:42:42;3.33;;;1.25;;
64225;SDS011;50545;56.064;26.178;2023-02-12T00:45:09;3.00;;;1.42;;
64225;SDS011;50545;56.064;26.178;2023-02-12T00:47:36;2.72;;;1.50;;
64225;SDS011;50545;56.064;26.178;2023-02-12T00:50:04;3.05;;;1.33;;
64225;SDS011;50545;56.064;26.178;2023-02-12T00:52:31;2.97;;;1.48;;
64225;SDS011;50545;56.064;26.178;2023-02-12T00:54:59;2.92;;;1.35;;
64225;SDS011;50545;56.064;26.178;2023-02-12T00:57:26;4.18;;;1.60;;
64225;SDS011;50545;56.064;26.178;2023-02-12T00:59:53;3.28;;;1.55;;
64225;SDS011;50545;56.064;26.178;2023-02-12T01:02:20;4.38;;;1.40;;
64225;SDS011;50545;56.064;26.178;2023-02-12T01:04:47;2.83;;;1.30;;
64225;SDS011;50545;56.064;26.178;2023-02-12T01:07:15;4.00;;;1.20;;
64225;SDS011;50545;56.064;26.178;2023-02-12T01:09:42;2.97;;;1.45;;
64225;SDS011;50545;56.064;26.178;2023-02-12T01:12:09;4.28;;;1.80;;
64225;SDS011;50545;56.064;26.178;2023-02-12T01:14:36;3.53;;;1.50;;
64225;SDS011;50545;56.064;26.178;2023-02-12T01:17:03;4.55;;;1.40;;
64225;SDS011;50545;56.064;26.178;2023-02-12T01:19:34;3.80;;;1.48;;
64225;SDS011;50545;56.064;26.178;2023-02-12T01:22:02;4.90;;;1.88;;
64225;SDS011;50545;56.064;26.178;2023-02-12T01:24:29;4.75;;;1.70;;
64225;SDS011;50545;56.064;26.178;2023-02-12T01:26:56;2.55;;;1.48;;
64225;SDS011;50545;56.064;26.178;2023-02-12T01:29:23;4.72;;;1.90;;
64225;SDS011;50545;56.064;26.178;2023-02-12T01:31:51;4.63;;;1.50;;
64225;SDS011;50545;56.064;26.178;2023-02-12T01:34:18;5.10;;;1.73;;
64225;SDS011;50545;56.064;26.178;2023-02-12T01:36:45;3.97;;;1.42;;
64225;SDS011;50545;56.064;26.178;2023-02-12T01:39:12;2.67;;;1.63;;
64225;SDS011;50545;56.064;26.178;2023-02-12T01:41:41;4.25;;;1.60;;
64225;SDS011;50545;56.064;26.178;2023-02-12T01:46:48;3.90;;;1.55;;
64225;SDS011;50545;56.064;26.178;2023-02-12T01:49:21;2.60;;;1.35;;
64225;SDS011;50545;56.064;26.178;2023-02-12T01:51:57;3.22;;;1.55;;
64225;SDS011;50545;56.064;26.178;2023-02-12T01:54:28;2.90;;;1.48;;
64225;SDS011;50545;56.064;26.178;2023-02-12T01:56:57;2.97;;;1.50;;
64225;SDS011;50545;56.064;26.178;2023-02-12T01:59:26;4.60;;;1.60;;
64225;SDS011;50545;56.064;26.178;2023-02-12T02:01:54;3.85;;;1.60;;
64225;SDS011;50545;56.064;26.178;2023-02-12T02:04:26;5.90;;;1.80;;
64225;SDS011;50545;56.064;26.178;2023-02-12T02:07:00;4.60;;;1.88;;
64225;SDS011;50545;56.064;26.178;2023-02-12T02:09:30;4.72;;;1.42;;
64225;SDS011;50545;56.064;26.178;2023-02-12T02:12:01;3.95;;;1.38;;
64225;SDS011;50545;56.064;26.178;2023-02-12T02:14:47;4.90;;;1.27;;
64225;SDS011;50545;56.064;26.178;2023-02-12T02:25:52;1.65;;;1.05;;
64225;SDS011;50545;56.064;26.178;2023-02-12T02:31:29;2.03;;;1.42;;
64225;SDS011;50545;56.064;26.178;2023-02-12T02:39:35;1.85;;;1.40;;
64225;SDS011;50545;56.064;26.178;2023-02-12T02:42:27;6.28;;;1.65;;
64225;SDS011;50545;56.064;26.178;2023-02-12T02:45:03;2.28;;;1.10;;
64225;SDS011;50545;56.064;26.178;2023-02-12T02:47:40;3.15;;;1.52;;
64225;SDS011;50545;56.064;26.178;2023-02-12T02:50:12;4.10;;;1.48;;
64225;SDS011;50545;56.064;26.178;2023-02-12T02:52:55;3.05;;;1.15;;
64225;SDS011;50545;56.064;26.178;2023-02-12T02:55:27;2.33;;;1.17;;
64225;SDS011;50545;56.064;26.178;2023-02-12T02:58:05;2.25;;;1.30;;
64225;SDS011;50545;56.064;26.178;2023-02-12T03:00:47;2.85;;;1.30;;
64225;SDS011;50545;56.064;26.178;2023-02-12T03:03:43;2.95;;;1.20;;
64225;SDS011;50545;56.064;26.178;2023-02-12T03:06:29;1.60;;;1.13;;
64225;SDS011;50545;56.064;26.178;2023-02-12T03:09:08;3.90;;;1.40;;
64225;SDS011;50545;56.064;26.178;2023-02-12T03:11:46;4.00;;;1.60;;
64225;SDS011;50545;56.064;26.178;2023-02-12T03:14:27;4.28;;;1.90;;
64225;SDS011;50545;56.064;26.178;2023-02-12T03:19:45;3.17;;;1.50;;
64225;SDS011;50545;56.064;26.178;2023-02-12T03:22:20;3.33;;;1.30;;
64225;SDS011;50545;56.064;26.178;2023-02-12T03:24:55;2.38;;;1.10;;
64225;SDS011;50545;56.064;26.178;2023-02-12T03:27:33;2.72;;;1.15;;
64225;SDS011;50545;56.064;26.178;2023-02-12T03:30:06;2.33;;;1.33;;
64225;SDS011;50545;56.064;26.178;2023-02-12T03:32:44;2.47;;;1.40;;
64225;SDS011;50545;56.064;26.178;2023-02-12T03:35:24;3.55;;;1.40;;
64225;SDS011;50545;56.064;26.178;2023-02-12T03:38:10;3.80;;;1.30;;
64225;SDS011;50545;56.064;26.178;2023-02-12T03:40:46;2.45;;;1.58;;
64225;SDS011;50545;56.064;26.178;2023-02-12T03:43:24;2.08;;;1.38;;
64225;SDS011;50545;56.064;26.178;2023-02-12T03:46:16;5.38;;;1.88;;
64225;SDS011;50545;56.064;26.178;2023-02-12T03:49:17;3.95;;;1.60;;
64225;SDS011;50545;56.064;26.178;2023-02-12T03:51:50;4.28;;;1.60;;
64225;SDS011;50545;56.064;26.178;2023-02-12T03:54:17;4.18;;;1.50;;
64225;SDS011;50545;56.064;26.178;2023-02-12T03:59:48;3.97;;;1.63;;
64225;SDS011;50545;56.064;26.178;2023-02-12T04:02:17;6.55;;;1.77;;
64225;SDS011;50545;56.064;26.178;2023-02-12T04:04:45;6.60;;;1.90;;
64225;SDS011;50545;56.064;26.178;2023-02-12T04:07:13;4.80;;;1.90;;
64225;SDS011;50545;56.064;26.178;2023-02-12T04:09:42;7.25;;;1.98;;
64225;SDS011;50545;56.064;26.178;2023-02-12T04:21:11;5.13;;;2.10;;
64225;SDS011;50545;56.064;26.178;2023-02-12T04:24:11;6.47;;;2.20;;
64225;SDS011;50545;56.064;26.178;2023-02-12T04:30:09;6.13;;;2.00;;
64225;SDS011;50545;56.064;26.178;2023-02-12T04:33:18;4.05;;;1.30;;
64225;SDS011;50545;56.064;26.178;2023-02-12T04:35:59;3.20;;;1.42;;
64225;SDS011;50545;56.064;26.178;2023-02-12T04:38:31;3.75;;;1.55;;
64225;SDS011;50545;56.064;26.178;2023-02-12T04:41:04;2.78;;;1.40;;
64225;SDS011;50545;56.064;26.178;2023-02-12T04:43:34;4.28;;;1.38;;
64225;SDS011;50545;56.064;26.178;2023-02-12T04:46:03;6.55;;;1.98;;
64225;SDS011;50545;56.064;26.178;2023-02-12T04:48:32;2.67;;;1.70;;
64225;SDS011;50545;56.064;26.178;2023-02-12T04:51:01;1.65;;;1.15;;
64225;SDS011;50545;56.064;26.178;2023-02-12T04:53:28;4.85;;;1.60;;
64225;SDS011;50545;56.064;26.178;2023-02-12T04:55:55;4.18;;;1.58;;
64225;SDS011;50545;56.064;26.178;2023-02-12T04:58:23;5.80;;;1.92;;
64225;SDS011;50545;56.064;26.178;2023-02-12T05:00:50;5.07;;;1.98;;
64225;SDS011;50545;56.064;26.178;2023-02-12T05:03:17;3.92;;;1.85;;
64225;SDS011;50545;56.064;26.178;2023-02-12T05:05:45;7.43;;;1.92;;
64225;SDS011;50545;56.064;26.178;2023-02-12T05:08:12;7.07;;;2.30;;
64225;SDS011;50545;56.064;26.178;2023-02-12T05:10:39;4.03;;;1.88;;
64225;SDS011;50545;56.064;26.178;2023-02-12T05:13:06;5.60;;;1.80;;
64225;SDS011;50545;56.064;26.178;2023-02-12T05:15:33;5.82;;;2.30;;
64225;SDS011;50545;56.064;26.178;2023-02-12T05:18:00;3.67;;;1.70;;
64225;SDS011;50545;56.064;26.178;2023-02-12T05:20:28;4.45;;;2.08;;
64225;SDS011;50545;56.064;26.178;2023-02-12T05:22:55;4.15;;;1.85;;
64225;SDS011;50545;56.064;26.178;2023-02-12T05:25:22;4.15;;;2.00;;
64225;SDS011;50545;56.064;26.178;2023-02-12T05:27:49;4.10;;;2.00;;
64225;SDS011;50545;56.064;26.178;2023-02-12T05:30:17;6.72;;;2.97;;
64225;SDS011;50545;56.064;26.178;2023-02-12T05:32:44;5.30;;;2.10;;
64225;SDS011;50545;56.064;26.178;2023-02-12T05:35:11;5.63;;;2.60;;
64225;SDS011;50545;56.064;26.178;2023-02-12T05:37:38;6.40;;;2.40;;
64225;SDS011;50545;56.064;26.178;2023-02-12T05:40:06;7.97;;;2.30;;
64225;SDS011;50545;56.064;26.178;2023-02-12T05:42:34;6.50;;;2.40;;
64225;SDS011;50545;56.064;26.178;2023-02-12T05:45:01;4.47;;;1.73;;
64225;SDS011;50545;56.064;26.178;2023-02-12T05:47:28;3.60;;;1.90;;
64225;SDS011;50545;56.064;26.178;2023-02-12T05:49:56;5.55;;;2.40;;
64225;SDS011;50545;56.064;26.178;2023-02-12T05:52:23;4.88;;;1.92;;
64225;SDS011;50545;56.064;26.178;2023-02-12T05:54:50;7.28;;;2.25;;
64225;SDS011;50545;56.064;26.178;2023-02-12T05:57:17;6.35;;;2.30;;
64225;SDS011;50545;56.064;26.178;2023-02-12T05:59:44;4.18;;;2.00;;
64225;SDS011;50545;56.064;26.178;2023-02-12T06:02:12;6.38;;;2.30;;
64225;SDS011;50545;56.064;26.178;2023-02-12T06:04:39;6.28;;;2.40;;
64225;SDS011;50545;56.064;26.178;2023-02-12T06:07:06;6.50;;;2.60;;
64225;SDS011;50545;56.064;26.178;2023-02-12T06:09:34;5.88;;;3.10;;
64225;SDS011;50545;56.064;26.178;2023-02-12T06:12:02;5.53;;;2.60;;
64225;SDS011;50545;56.064;26.178;2023-02-12T06:14:30;7.22;;;2.60;;
64225;SDS011;50545;56.064;26.178;2023-02-12T06:16:57;7.55;;;2.90;;
64225;SDS011;50545;56.064;26.178;2023-02-12T06:19:24;7.65;;;2.70;;
64225;SDS011;50545;56.064;26.178;2023-02-12T06:21:52;5.38;;;2.30;;
64225;SDS011;50545;56.064;26.178;2023-02-12T06:24:19;6.78;;;2.28;;
64225;SDS011;50545;56.064;26.178;2023-02-12T06:26:48;5.70;;;2.03;;
64225;SDS011;50545;56.064;26.178;2023-02-12T06:29:17;5.80;;;2.28;;
64225;SDS011;50545;56.064;26.178;2023-02-12T06:31:45;4.65;;;2.70;;
64225;SDS011;50545;56.064;26.178;2023-02-12T06:34:13;4.72;;;2.00;;
64225;SDS011;50545;56.064;26.178;2023-02-12T06:36:43;5.60;;;2.22;;
64225;SDS011;50545;56.064;26.178;2023-02-12T06:39:12;7.90;;;2.35;;
64225;SDS011;50545;56.064;26.178;2023-02-12T06:41:40;8.02;;;2.65;;
64225;SDS011;50545;56.064;26.178;2023-02-12T06:44:09;2.92;;;1.65;;
64225;SDS011;50545;56.064;26.178;2023-02-12T06:46:37;7.80;;;2.50;;
64225;SDS011;50545;56.064;26.178;2023-02-12T06:49:04;4.13;;;1.75;;
64225;SDS011;50545;56.064;26.178;2023-02-12T06:51:32;7.05;;;2.00;;
64225;SDS011;50545;56.064;26.178;2023-02-12T06:53:59;4.35;;;2.08;;
64225;SDS011;50545;56.064;26.178;2023-02-12T06:56:26;4.38;;;2.25;;
64225;SDS011;50545;56.064;26.178;2023-02-12T06:58:55;6.32;;;2.30;;
64225;SDS011;50545;56.064;26.178;2023-02-12T07:01:24;4.65;;;2.10;;
64225;SDS011;50545;56.064;26.178;2023-02-12T07:03:55;6.03;;;2.13;;
64225;SDS011;50545;56.064;26.178;2023-02-12T07:06:28;3.80;;;1.67;;
64225;SDS011;50545;56.064;26.178;2023-02-12T07:08:56;4.25;;;2.00;;
64225;SDS011;50545;56.064;26.178;2023-02-12T07:11:24;5.28;;;2.42;;
64225;SDS011;50545;56.064;26.178;2023-02-12T07:13:53;5.90;;;2.40;;
64225;SDS011;50545;56.064;26.178;2023-02-12T07:16:20;5.97;;;2.35;;
64225;SDS011;50545;56.064;26.178;2023-02-12T07:18:48;4.35;;;2.05;;
64225;SDS011;50545;56.064;26.178;2023-02-12T07:21:15;6.13;;;2.58;;
64225;SDS011;50545;56.064;26.178;2023-02-12T07:23:49;4.60;;;1.77;;
64225;SDS011;50545;56.064;26.178;2023-02-12T07:26:18;4.88;;;2.00;;
64225;SDS011;50545;56.064;26.178;2023-02-12T07:28:46;5.95;;;2.40;;
64225;SDS011;50545;56.064;26.178;2023-02-12T07:31:15;4.18;;;2.10;;
64225;SDS011;50545;56.064;26.178;2023-02-12T07:33:48;7.13;;;2.47;;
64225;SDS011;50545;56.064;26.178;2023-02-12T07:36:18;8.45;;;2.92;;
64225;SDS011;50545;56.064;26.178;2023-02-12T07:38:46;9.27;;;3.15;;
64225;SDS011;50545;56.064;26.178;2023-02-12T07:41:15;8.68;;;2.92;;
64225;SDS011;50545;56.064;26.178;2023-02-12T07:43:45;7.18;;;2.50;;
64225;SDS011;50545;56.064;26.178;2023-02-12T07:46:17;8.35;;;2.40;;
64225;SDS011;50545;56.064;26.178;2023-02-12T07:48:46;5.18;;;2.45;;
64225;SDS011;50545;56.064;26.178;2023-02-12T07:51:15;5.85;;;1.77;;
64225;SDS011;50545;56.064;26.178;2023-02-12T07:53:46;7.75;;;2.38;;
64225;SDS011;50545;56.064;26.178;2023-02-12T07:56:18;7.05;;;2.30;;
64225;SDS011;50545;56.064;26.178;2023-02-12T07:58:48;5.47;;;2.28;;
64225;SDS011;50545;56.064;26.178;2023-02-12T08:01:18;9.20;;;2.90;;
64225;SDS011;50545;56.064;26.178;2023-02-12T08:03:50;3.67;;;1.50;;
64225;SDS011;50545;56.064;26.178;2023-02-12T08:08:45;5.18;;;1.75;;
64225;SDS011;50545;56.064;26.178;2023-02-12T08:11:13;5.18;;;1.85;;
64225;SDS011;50545;56.064;26.178;2023-02-12T08:13:41;4.32;;;1.83;;
64225;SDS011;50545;56.064;26.178;2023-02-12T08:16:09;3.40;;;1.33;;
64225;SDS011;50545;56.064;26.178;2023-02-12T08:21:07;7.57;;;1.98;;
64225;SDS011;50545;56.064;26.178;2023-02-12T08:23:39;5.95;;;1.92;;
64225;SDS011;50545;56.064;26.178;2023-02-12T08:26:07;4.38;;;1.85;;
64225;SDS011;50545;56.064;26.178;2023-02-12T08:28:42;5.38;;;1.90;;
64225;SDS011;50545;56.064;26.178;2023-02-12T08:31:15;6.60;;;2.10;;
64225;SDS011;50545;56.064;26.178;2023-02-12T08:33:48;5.28;;;2.15;;
64225;SDS011;50545;56.064;26.178;2023-02-12T08:36:18;5.63;;;2.40;;
64225;SDS011;50545;56.064;26.178;2023-02-12T08:38:47;7.65;;;2.22;;
64225;SDS011;50545;56.064;26.178;2023-02-12T08:41:17;4.75;;;2.10;;
64225;SDS011;50545;56.064;26.178;2023-02-12T08:43:49;8.38;;;2.20;;
64225;SDS011;50545;56.064;26.178;2023-02-12T08:46:19;7.15;;;2.30;;
64225;SDS011;50545;56.064;26.178;2023-02-12T08:48:51;6.70;;;2.33;;
64225;SDS011;50545;56.064;26.178;2023-02-12T08:51:24;5.75;;;2.15;;
64225;SDS011;50545;56.064;26.178;2023-02-12T08:53:54;6.78;;;2.60;;
64225;SDS011;50545;56.064;26.178;2023-02-12T08:56:23;5.13;;;2.23;;
64225;SDS011;50545;56.064;26.178;2023-02-12T08:58:51;6.63;;;2.40;;
64225;SDS011;50545;56.064;26.178;2023-02-12T09:01:19;7.60;;;2.50;;
64225;SDS011;50545;56.064;26.178;2023-02-12T09:03:49;5.47;;;2.30;;
64225;SDS011;50545;56.064;26.178;2023-02-12T09:06:17;4.10;;;1.58;;
64225;SDS011;50545;56.064;26.178;2023-02-12T09:08:46;6.57;;;2.22;;
64225;SDS011;50545;56.064;26.178;2023-02-12T09:11:15;7.82;;;2.30;;
64225;SDS011;50545;56.064;26.178;2023-02-12T09:13:44;7.72;;;2.38;;
64225;SDS011;50545;56.064;26.178;2023-02-12T09:16:13;4.93;;;1.60;;
64225;SDS011;50545;56.064;26.178;2023-02-12T09:18:40;5.95;;;2.00;;
64225;SDS011;50545;56.064;26.178;2023-02-12T09:21:09;6.35;;;2.35;;
64225;SDS011;50545;56.064;26.178;2023-02-12T09:23:39;4.80;;;1.92;;
64225;SDS011;50545;56.064;26.178;2023-02-12T09:26:07;3.42;;;1.80;;
64225;SDS011;50545;56.064;26.178;2023-02-12T09:28:36;2.78;;;1.67;;
64225;SDS011;50545;56.064;26.178;2023-02-12T09:31:12;5.20;;;1.70;;
64225;SDS011;50545;56.064;26.178;2023-02-12T09:33:41;4.72;;;1.77;;
64225;SDS011;50545;56.064;26.178;2023-02-12T09:36:10;5.35;;;1.70;;
64225;SDS011;50545;56.064;26.178;2023-02-12T09:38:40;5.47;;;1.88;;
64225;SDS011;50545;56.064;26.178;2023-02-12T09:52:40;4.57;;;1.80;;
64225;SDS011;50545;56.064;26.178;2023-02-12T09:55:10;6.30;;;2.10;;
64225;SDS011;50545;56.064;26.178;2023-02-12T09:57:41;5.68;;;2.10;;
64225;SDS011;50545;56.064;26.178;2023-02-12T10:03:00;4.22;;;1.80;;
64225;SDS011;50545;56.064;26.178;2023-02-12T10:05:35;4.82;;;2.08;;
64225;SDS011;50545;56.064;26.178;2023-02-12T10:13:30;4.28;;;1.75;;
64225;SDS011;50545;56.064;26.178;2023-02-12T10:16:14;6.70;;;1.90;;
64225;SDS011;50545;56.064;26.178;2023-02-12T10:21:41;7.20;;;2.25;;
64225;SDS011;50545;56.064;26.178;2023-02-12T10:27:52;4.57;;;1.80;;
64225;SDS011;50545;56.064;26.178;2023-02-12T10:30:23;4.55;;;2.40;;
64225;SDS011;50545;56.064;26.178;2023-02-12T10:33:04;4.55;;;2.15;;
64225;SDS011;50545;56.064;26.178;2023-02-12T10:35:38;7.88;;;2.75;;
64225;SDS011;50545;56.064;26.178;2023-02-12T10:38:26;4.82;;;2.10;;
64225;SDS011;50545;56.064;26.178;2023-02-12T10:40:58;8.10;;;2.60;;
64225;SDS011;50545;56.064;26.178;2023-02-12T10:43:27;6.47;;;2.45;;
64225;SDS011;50545;56.064;26.178;2023-02-12T10:45:55;6.47;;;2.15;;
64225;SDS011;50545;56.064;26.178;2023-02-12T10:48:25;7.65;;;2.55;;
64225;SDS011;50545;56.064;26.178;2023-02-12T10:53:56;6.30;;;2.90;;
64225;SDS011;50545;56.064;26.178;2023-02-12T10:56:24;6.15;;;2.45;;
64225;SDS011;50545;56.064;26.178;2023-02-12T10:58:58;5.07;;;2.17;;
64225;SDS011;50545;56.064;26.178;2023-02-12T11:01:27;7.25;;;2.60;;
64225;SDS011;50545;56.064;26.178;2023-02-12T11:03:58;5.22;;;1.60;;
64225;SDS011;50545;56.064;26.178;2023-02-12T11:06:27;7.57;;;2.10;;
64225;SDS011;50545;56.064;26.178;2023-02-12T11:08:55;8.05;;;2.42;;
64225;SDS011;50545;56.064;26.178;2023-02-12T11:11:28;6.38;;;2.20;;
64225;SDS011;50545;56.064;26.178;2023-02-12T11:14:06;5.97;;;1.90;;
64225;SDS011;50545;56.064;26.178;2023-02-12T11:16:53;4.60;;;2.00;;
64225;SDS011;50545;56.064;26.178;2023-02-12T11:19:23;5.72;;;2.08;;
64225;SDS011;50545;56.064;26.178;2023-02-12T11:22:13;3.92;;;1.48;;
64225;SDS011;50545;56.064;26.178;2023-02-12T11:24:44;5.95;;;2.03;;
64225;SDS011;50545;56.064;26.178;2023-02-12T11:29:42;7.15;;;1.98;;
64225;SDS011;50545;56.064;26.178;2023-02-12T11:32:19;4.28;;;1.70;;
64225;SDS011;50545;56.064;26.178;2023-02-12T11:35:05;4.57;;;1.85;;
64225;SDS011;50545;56.064;26.178;2023-02-12T11:37:38;3.93;;;1.57;;
64225;SDS011;50545;56.064;26.178;2023-02-12T11:40:14;3.97;;;1.40;;
64225;SDS011;50545;56.064;26.178;2023-02-12T11:42:46;7.65;;;2.33;;
64225;SDS011;50545;56.064;26.178;2023-02-12T11:45:18;6.82;;;1.60;;
64225;SDS011;50545;56.064;26.178;2023-02-12T11:47:47;3.92;;;1.50;;
64225;SDS011;50545;56.064;26.178;2023-02-12T11:50:28;3.92;;;1.20;;
64225;SDS011;50545;56.064;26.178;2023-02-12T11:53:03;4.05;;;1.60;;
64225;SDS011;50545;56.064;26.178;2023-02-12T11:55:36;2.53;;;1.05;;
64225;SDS011;50545;56.064;26.178;2023-02-12T12:03:12;7.63;;;1.70;;
64225;SDS011;50545;56.064;26.178;2023-02-12T12:14:12;4.97;;;1.60;;
64225;SDS011;50545;56.064;26.178;2023-02-12T12:16:58;5.50;;;1.73;;
64225;SDS011;50545;56.064;26.178;2023-02-12T12:33:19;4.72;;;1.60;;
64225;SDS011;50545;56.064;26.178;2023-02-12T12:38:58;3.88;;;1.38;;
64225;SDS011;50545;56.064;26.178;2023-02-12T12:41:57;4.43;;;1.45;;
64225;SDS011;50545;56.064;26.178;2023-02-12T12:58:00;1.75;;;1.10;;
64225;SDS011;50545;56.064;26.178;2023-02-12T13:00:45;2.08;;;1.20;;
64225;SDS011;50545;56.064;26.178;2023-02-12T13:14:03;6.85;;;1.70;;
64225;SDS011;50545;56.064;26.178;2023-02-12T13:16:34;5.60;;;1.80;;
64225;SDS011;50545;56.064;26.178;2023-02-12T13:19:35;6.00;;;1.67;;
64225;SDS011;50545;56.064;26.178;2023-02-12T13:22:17;3.88;;;1.90;;
64225;SDS011;50545;56.064;26.178;2023-02-12T13:27:24;1.98;;;1.23;;
64225;SDS011;50545;56.064;26.178;2023-02-12T13:29:57;3.63;;;1.70;;
64225;SDS011;50545;56.064;26.178;2023-02-12T13:32:44;3.65;;;1.77;;
64225;SDS011;50545;56.064;26.178;2023-02-12T13:35:28;6.38;;;1.92;;
64225;SDS011;50545;56.064;26.178;2023-02-12T13:37:57;5.38;;;1.75;;
64225;SDS011;50545;56.064;26.178;2023-02-12T13:40:26;6.70;;;1.77;;
64225;SDS011;50545;56.064;26.178;2023-02-12T13:45:51;4.70;;;1.65;;
64225;SDS011;50545;56.064;26.178;2023-02-12T13:56:31;4.45;;;1.35;;
64225;SDS011;50545;56.064;26.178;2023-02-12T14:01:58;3.50;;;1.15;;
64225;SDS011;50545;56.064;26.178;2023-02-12T14:04:32;2.78;;;1.45;;
64225;SDS011;50545;56.064;26.178;2023-02-12T14:07:06;4.75;;;1.45;;
64225;SDS011;50545;56.064;26.178;2023-02-12T14:09:40;5.90;;;2.10;;
64225;SDS011;50545;56.064;26.178;2023-02-12T14:12:12;4.57;;;1.90;;
64225;SDS011;50545;56.064;26.178;2023-02-12T14:20:05;3.47;;;1.80;;
64225;SDS011;50545;56.064;26.178;2023-02-12T14:25:31;3.95;;;1.50;;
64225;SDS011;50545;56.064;26.178;2023-02-12T14:33:51;2.53;;;1.23;;
64225;SDS011;50545;56.064;26.178;2023-02-12T14:36:43;4.50;;;1.27;;
64225;SDS011;50545;56.064;26.178;2023-02-12T14:41:48;4.50;;;1.33;;
64225;SDS011;50545;56.064;26.178;2023-02-12T14:46:52;4.32;;;1.60;;
64225;SDS011;50545;56.064;26.178;2023-02-12T14:51:57;2.78;;;1.20;;
64225;SDS011;50545;56.064;26.178;2023-02-12T14:54:35;3.80;;;1.65;;
64225;SDS011;50545;56.064;26.178;2023-02-12T14:57:33;3.90;;;1.50;;
64225;SDS011;50545;56.064;26.178;2023-02-12T15:00:26;5.63;;;1.88;;
64225;SDS011;50545;56.064;26.178;2023-02-12T15:08:30;2.88;;;0.98;;
64225;SDS011;50545;56.064;26.178;2023-02-12T15:11:22;3.63;;;1.60;;
64225;SDS011;50545;56.064;26.178;2023-02-12T15:13:53;3.05;;;1.30;;
64225;SDS011;50545;56.064;26.178;2023-02-12T15:19:30;6.05;;;1.65;;
64225;SDS011;50545;56.064;26.178;2023-02-12T15:22:00;5.28;;;1.67;;
64225;SDS011;50545;56.064;26.178;2023-02-12T15:24:27;6.35;;;1.95;;
64225;SDS011;50545;56.064;26.178;2023-02-12T15:26:55;5.38;;;1.90;;
64225;SDS011;50545;56.064;26.178;2023-02-12T15:29:26;5.05;;;1.60;;
64225;SDS011;50545;56.064;26.178;2023-02-12T15:31:59;3.75;;;1.63;;
64225;SDS011;50545;56.064;26.178;2023-02-12T15:34:29;3.78;;;1.80;;
64225;SDS011;50545;56.064;26.178;2023-02-12T15:37:00;5.55;;;2.40;;
64225;SDS011;50545;56.064;26.178;2023-02-12T15:39:31;5.53;;;1.80;;
64225;SDS011;50545;56.064;26.178;2023-02-12T15:44:51;4.88;;;1.63;;
64225;SDS011;50545;56.064;26.178;2023-02-12T15:47:28;3.75;;;1.73;;
64225;SDS011;50545;56.064;26.178;2023-02-12T15:49:58;7.40;;;1.67;;
64225;SDS011;50545;56.064;26.178;2023-02-12T15:52:35;4.47;;;1.95;;
64225;SDS011;50545;56.064;26.178;2023-02-12T15:55:10;2.25;;;1.30;;
64225;SDS011;50545;56.064;26.178;2023-02-12T15:57:42;0.98;;;0.82;;
64225;SDS011;50545;56.064;26.178;2023-02-12T16:02:54;3.78;;;1.50;;
64225;SDS011;50545;56.064;26.178;2023-02-12T16:05:22;5.47;;;1.77;;
64225;SDS011;50545;56.064;26.178;2023-02-12T16:07:50;3.17;;;1.45;;
64225;SDS011;50545;56.064;26.178;2023-02-12T16:10:17;1.50;;;0.90;;
64225;SDS011;50545;56.064;26.178;2023-02-12T16:12:46;3.78;;;1.45;;
64225;SDS011;50545;56.064;26.178;2023-02-12T16:15:28;5.85;;;1.85;;
64225;SDS011;50545;56.064;26.178;2023-02-12T16:17:57;3.83;;;1.85;;
64225;SDS011;50545;56.064;26.178;2023-02-12T16:20:29;3.88;;;1.60;;
64225;SDS011;50545;56.064;26.178;2023-02-12T16:22:57;6.68;;;2.28;;
64225;SDS011;50545;56.064;26.178;2023-02-12T16:25:31;8.20;;;2.10;;
64225;SDS011;50545;56.064;26.178;2023-02-12T16:30:34;5.18;;;1.42;;
64225;SDS011;50545;56.064;26.178;2023-02-12T16:33:04;4.88;;;2.03;;
64225;SDS011;50545;56.064;26.178;2023-02-12T16:36:04;2.78;;;1.30;;
64225;SDS011;50545;56.064;26.178;2023-02-12T16:38:49;4.90;;;1.77;;
64225;SDS011;50545;56.064;26.178;2023-02-12T16:43:47;4.65;;;1.80;;
64225;SDS011;50545;56.064;26.178;2023-02-12T16:46:28;2.75;;;1.25;;
64225;SDS011;50545;56.064;26.178;2023-02-12T16:49:00;2.08;;;1.17;;
64225;SDS011;50545;56.064;26.178;2023-02-12T16:51:29;2.55;;;1.25;;
64225;SDS011;50545;56.064;26.178;2023-02-12T16:54:03;2.38;;;1.50;;
64225;SDS011;50545;56.064;26.178;2023-02-12T16:56:49;5.22;;;1.88;;
64225;SDS011;50545;56.064;26.178;2023-02-12T16:59:17;3.75;;;1.55;;
64225;SDS011;50545;56.064;26.178;2023-02-12T17:01:55;1.77;;;1.30;;
64225;SDS011;50545;56.064;26.178;2023-02-12T17:06:52;2.38;;;1.38;;
64225;SDS011;50545;56.064;26.178;2023-02-12T17:09:19;4.63;;;1.75;;
64225;SDS011;50545;56.064;26.178;2023-02-12T17:11:47;4.30;;;1.40;;
64225;SDS011;50545;56.064;26.178;2023-02-12T17:14:18;5.40;;;1.50;;
64225;SDS011;50545;56.064;26.178;2023-02-12T17:16:46;4.45;;;1.42;;
64225;SDS011;50545;56.064;26.178;2023-02-12T17:19:13;5.72;;;2.10;;
64225;SDS011;50545;56.064;26.178;2023-02-12T17:21:42;2.92;;;1.35;;
64225;SDS011;50545;56.064;26.178;2023-02-12T17:24:17;6.82;;;1.77;;
64225;SDS011;50545;56.064;26.178;2023-02-12T17:26:49;3.28;;;1.40;;
64225;SDS011;50545;56.064;26.178;2023-02-12T17:29:18;3.75;;;1.55;;
64225;SDS011;50545;56.064;26.178;2023-02-12T17:31:46;3.67;;;1.27;;
64225;SDS011;50545;56.064;26.178;2023-02-12T17:34:14;3.35;;;1.45;;
64225;SDS011;50545;56.064;26.178;2023-02-12T17:36:42;3.97;;;1.48;;
64225;SDS011;50545;56.064;26.178;2023-02-12T17:39:10;4.30;;;1.35;;
64225;SDS011;50545;56.064;26.178;2023-02-12T17:41:38;4.57;;;1.60;;
64225;SDS011;50545;56.064;26.178;2023-02-12T17:44:06;5.15;;;2.10;;
64225;SDS011;50545;56.064;26.178;2023-02-12T17:46:36;5.97;;;1.60;;
64225;SDS011;50545;56.064;26.178;2023-02-12T17:49:03;4.97;;;1.75;;
64225;SDS011;50545;56.064;26.178;2023-02-12T17:51:31;3.30;;;1.40;;
64225;SDS011;50545;56.064;26.178;2023-02-12T17:53:58;5.38;;;2.10;;
64225;SDS011;50545;56.064;26.178;2023-02-12T17:56:25;5.57;;;1.90;;
64225;SDS011;50545;56.064;26.178;2023-02-12T17:58:52;5.93;;;2.30;;
64225;SDS011;50545;56.064;26.178;2023-02-12T18:01:21;2.92;;;1.45;;
64225;SDS011;50545;56.064;26.178;2023-02-12T18:03:49;6.00;;;2.35;;
64225;SDS011;50545;56.064;26.178;2023-02-12T18:08:47;4.95;;;1.63;;
64225;SDS011;50545;56.064;26.178;2023-02-12T18:11:15;3.78;;;1.77;;